sensor_id;sensor_type;location;lat;lon;timestamp;temperature;humidity
15044;DHT22;7619;48.562;8.910;2022-11-04T00:01:50;10.00;99.90
15044;DHT22;7619;48.562;8.910;2022-11-04T00:04:21;10.00;99.90
15044;DHT22;7619;48.562;8.910;2022-11-04T00:06:50;10.00;99.90
15044;DHT22;7619;48.562;8.910;2022-11-04T00:09:22;9.90;99.90
15044;DHT22;7619;48.562;8.910;2022-11-04T00:11:51;9.90;99.90
15044;DHT22;7619;48.562;8.910;2022-11-04T00:17:18;9.90;99.90
15044;DHT22;7619;48.562;8.910;2022-11-04T00:19:50;9.90;99.90
15044;DHT22;7619;48.562;8.910;2022-11-04T00:22:38;9.90;99.90
15044;DHT22;7619;48.562;8.910;2022-11-04T00:25:25;9.90;99.90
15044;DHT22;7619;48.562;8.910;2022-11-04T00:28:20;9.90;99.90
15044;DHT22;7619;48.562;8.910;2022-11-04T00:31:08;9.90;99.90
15044;DHT22;7619;48.562;8.910;2022-11-04T00:33:56;9.90;99.90
15044;DHT22;7619;48.562;8.910;2022-11-04T00:36:26;7.10;99.90
15044;DHT22;7619;48.562;8.910;2022-11-04T00:38:55;9.90;99.90
15044;DHT22;7619;48.562;8.910;2022-11-04T00:41:24;9.90;99.90
15044;DHT22;7619;48.562;8.910;2022-11-04T00:43:54;9.90;99.90
15044;DHT22;7619;48.562;8.910;2022-11-04T00:49:01;10.00;99.90
15044;DHT22;7619;48.562;8.910;2022-11-04T00:51:30;10.00;99.90
15044;DHT22;7619;48.562;8.910;2022-11-04T00:53:59;10.10;99.90
15044;DHT22;7619;48.562;8.910;2022-11-04T00:56:28;10.10;99.90
15044;DHT22;7619;48.562;8.910;2022-11-04T00:58:59;10.10;99.90
15044;DHT22;7619;48.562;8.910;2022-11-04T01:01:28;10.10;99.90
15044;DHT22;7619;48.562;8.910;2022-11-04T01:03:57;10.10;99.90
15044;DHT22;7619;48.562;8.910;2022-11-04T01:06:27;10.10;99.90
15044;DHT22;7619;48.562;8.910;2022-11-04T01:08:56;10.10;99.90
15044;DHT22;7619;48.562;8.910;2022-11-04T01:11:27;10.10;99.90
15044;DHT22;7619;48.562;8.910;2022-11-04T01:13:57;10.10;99.90
15044;DHT22;7619;48.562;8.910;2022-11-04T01:16:27;10.10;99.90
15044;DHT22;7619;48.562;8.910;2022-11-04T01:18:57;10.10;99.90
15044;DHT22;7619;48.562;8.910;2022-11-04T01:21:26;10.10;99.90
15044;DHT22;7619;48.562;8.910;2022-11-04T01:26:34;10.10;99.90
15044;DHT22;7619;48.562;8.910;2022-11-04T01:29:03;10.10;99.90
15044;DHT22;7619;48.562;8.910;2022-11-04T01:31:32;10.10;99.90
15044;DHT22;7619;48.562;8.910;2022-11-04T01:34:01;10.00;99.90
15044;DHT22;7619;48.562;8.910;2022-11-04T01:36:30;10.00;99.90
15044;DHT22;7619;48.562;8.910;2022-11-04T01:38:59;9.90;99.90
15044;DHT22;7619;48.562;8.910;2022-11-04T01:44:46;9.90;99.90
15044;DHT22;7619;48.562;8.910;2022-11-04T01:47:17;9.90;99.90
15044;DHT22;7619;48.562;8.910;2022-11-04T01:49:50;9.80;99.90
15044;DHT22;7619;48.562;8.910;2022-11-04T01:52:24;9.80;99.90
15044;DHT22;7619;48.562;8.910;2022-11-04T01:54:56;9.80;99.90
15044;DHT22;7619;48.562;8.910;2022-11-04T01:57:29;9.80;99.90
15044;DHT22;7619;48.562;8.910;2022-11-04T02:00:02;9.70;99.90
15044;DHT22;7619;48.562;8.910;2022-11-04T02:02:32;9.70;99.90
15044;DHT22;7619;48.562;8.910;2022-11-04T02:07:39;9.70;99.90
15044;DHT22;7619;48.562;8.910;2022-11-04T02:10:09;9.70;99.90
15044;DHT22;7619;48.562;8.910;2022-11-04T02:12:38;9.70;99.90
15044;DHT22;7619;48.562;8.910;2022-11-04T02:15:24;9.70;99.90
15044;DHT22;7619;48.562;8.910;2022-11-04T02:18:19;9.60;99.90
15044;DHT22;7619;48.562;8.910;2022-11-04T02:24:03;9.60;99.90
15044;DHT22;7619;48.562;8.910;2022-11-04T02:27:00;9.60;99.90
15044;DHT22;7619;48.562;8.910;2022-11-04T02:29:42;9.40;99.90
15044;DHT22;7619;48.562;8.910;2022-11-04T02:32:17;9.40;99.90
15044;DHT22;7619;48.562;8.910;2022-11-04T02:34:54;9.40;99.90
15044;DHT22;7619;48.562;8.910;2022-11-04T02:37:30;9.40;99.90
15044;DHT22;7619;48.562;8.910;2022-11-04T02:40:04;9.20;99.90
15044;DHT22;7619;48.562;8.910;2022-11-04T02:42:35;9.20;99.90
15044;DHT22;7619;48.562;8.910;2022-11-04T02:45:11;9.20;99.90
15044;DHT22;7619;48.562;8.910;2022-11-04T02:47:44;9.10;99.90
15044;DHT22;7619;48.562;8.910;2022-11-04T02:50:19;9.10;99.90
15044;DHT22;7619;48.562;8.910;2022-11-04T02:52:50;9.10;99.90
15044;DHT22;7619;48.562;8.910;2022-11-04T02:55:21;9.10;99.90
15044;DHT22;7619;48.562;8.910;2022-11-04T02:57:53;9.10;99.90
15044;DHT22;7619;48.562;8.910;2022-11-04T03:00:23;9.00;99.90
15044;DHT22;7619;48.562;8.910;2022-11-04T03:02:55;9.00;99.90
15044;DHT22;7619;48.562;8.910;2022-11-04T03:05:29;8.90;99.90
15044;DHT22;7619;48.562;8.910;2022-11-04T03:08:00;8.90;99.90
15044;DHT22;7619;48.562;8.910;2022-11-04T03:13:12;8.90;99.90
15044;DHT22;7619;48.562;8.910;2022-11-04T03:15:46;8.90;99.90
15044;DHT22;7619;48.562;8.910;2022-11-04T03:18:20;8.90;99.90
15044;DHT22;7619;48.562;8.910;2022-11-04T03:20:51;8.90;99.90
15044;DHT22;7619;48.562;8.910;2022-11-04T03:26:03;8.80;99.90
15044;DHT22;7619;48.562;8.910;2022-11-04T03:28:34;8.70;99.90
15044;DHT22;7619;48.562;8.910;2022-11-04T03:31:06;8.50;99.90
15044;DHT22;7619;48.562;8.910;2022-11-04T03:33:39;8.40;99.90
15044;DHT22;7619;48.562;8.910;2022-11-04T03:36:09;8.40;99.90
15044;DHT22;7619;48.562;8.910;2022-11-04T03:38:38;8.30;99.90
15044;DHT22;7619;48.562;8.910;2022-11-04T03:41:11;8.30;99.90
15044;DHT22;7619;48.562;8.910;2022-11-04T03:43:41;8.30;99.90
15044;DHT22;7619;48.562;8.910;2022-11-04T03:46:10;8.40;99.90
15044;DHT22;7619;48.562;8.910;2022-11-04T03:48:40;8.40;99.90
15044;DHT22;7619;48.562;8.910;2022-11-04T03:51:11;8.50;99.90
15044;DHT22;7619;48.562;8.910;2022-11-04T03:53:40;8.60;99.90
15044;DHT22;7619;48.562;8.910;2022-11-04T03:56:23;8.50;99.90
15044;DHT22;7619;48.562;8.910;2022-11-04T03:58:57;8.50;99.90
15044;DHT22;7619;48.562;8.910;2022-11-04T04:04:07;8.50;99.90
15044;DHT22;7619;48.562;8.910;2022-11-04T04:06:38;8.50;99.90
15044;DHT22;7619;48.562;8.910;2022-11-04T04:09:10;8.50;99.90
15044;DHT22;7619;48.562;8.910;2022-11-04T04:11:43;8.50;99.90
15044;DHT22;7619;48.562;8.910;2022-11-04T04:16:53;8.20;99.90
15044;DHT22;7619;48.562;8.910;2022-11-04T04:19:24;8.10;99.90
15044;DHT22;7619;48.562;8.910;2022-11-04T04:21:54;8.00;99.90
15044;DHT22;7619;48.562;8.910;2022-11-04T04:24:27;8.00;99.90
15044;DHT22;7619;48.562;8.910;2022-11-04T04:27:15;8.00;99.90
15044;DHT22;7619;48.562;8.910;2022-11-04T04:30:03;8.00;99.90
15044;DHT22;7619;48.562;8.910;2022-11-04T04:32:35;8.00;99.90
15044;DHT22;7619;48.562;8.910;2022-11-04T04:35:07;8.00;99.90
15044;DHT22;7619;48.562;8.910;2022-11-04T04:37:55;8.00;99.90
15044;DHT22;7619;48.562;8.910;2022-11-04T04:40:28;7.90;99.90
15044;DHT22;7619;48.562;8.910;2022-11-04T04:43:16;7.80;99.90
15044;DHT22;7619;48.562;8.910;2022-11-04T04:46:16;7.90;99.90
15044;DHT22;7619;48.562;8.910;2022-11-04T04:48:45;7.80;99.90
15044;DHT22;7619;48.562;8.910;2022-11-04T04:51:14;7.70;99.90
15044;DHT22;7619;48.562;8.910;2022-11-04T04:53:43;7.60;99.90
15044;DHT22;7619;48.562;8.910;2022-11-04T04:56:12;7.60;99.90
15044;DHT22;7619;48.562;8.910;2022-11-04T04:58:41;7.50;99.90
15044;DHT22;7619;48.562;8.910;2022-11-04T05:01:10;7.50;99.90
15044;DHT22;7619;48.562;8.910;2022-11-04T05:03:39;7.50;99.90
15044;DHT22;7619;48.562;8.910;2022-11-04T05:06:08;7.40;99.90
15044;DHT22;7619;48.562;8.910;2022-11-04T05:08:37;7.40;99.90
15044;DHT22;7619;48.562;8.910;2022-11-04T05:11:06;7.40;99.90
15044;DHT22;7619;48.562;8.910;2022-11-04T05:13:35;7.40;99.90
15044;DHT22;7619;48.562;8.910;2022-11-04T05:16:06;7.40;99.90
15044;DHT22;7619;48.562;8.910;2022-11-04T05:18:37;7.40;99.90
15044;DHT22;7619;48.562;8.910;2022-11-04T05:21:09;7.40;99.90
15044;DHT22;7619;48.562;8.910;2022-11-04T05:23:38;7.50;99.90
15044;DHT22;7619;48.562;8.910;2022-11-04T05:26:07;7.60;99.90
15044;DHT22;7619;48.562;8.910;2022-11-04T05:28:36;7.50;99.90
15044;DHT22;7619;48.562;8.910;2022-11-04T05:31:06;7.40;99.90
15044;DHT22;7619;48.562;8.910;2022-11-04T05:33:35;7.50;99.90
15044;DHT22;7619;48.562;8.910;2022-11-04T05:36:08;7.40;99.90
15044;DHT22;7619;48.562;8.910;2022-11-04T05:38:38;7.40;99.90
15044;DHT22;7619;48.562;8.910;2022-11-04T05:41:10;7.30;99.90
15044;DHT22;7619;48.562;8.910;2022-11-04T05:43:41;7.30;99.90
15044;DHT22;7619;48.562;8.910;2022-11-04T05:46:10;7.20;99.90
15044;DHT22;7619;48.562;8.910;2022-11-04T05:48:39;7.20;99.90
15044;DHT22;7619;48.562;8.910;2022-11-04T05:51:08;7.20;99.90
15044;DHT22;7619;48.562;8.910;2022-11-04T05:53:38;7.10;99.90
15044;DHT22;7619;48.562;8.910;2022-11-04T05:56:08;7.00;99.90
15044;DHT22;7619;48.562;8.910;2022-11-04T05:58:37;7.00;99.90
15044;DHT22;7619;48.562;8.910;2022-11-04T06:03:49;7.00;99.90
15044;DHT22;7619;48.562;8.910;2022-11-04T06:06:18;7.00;99.90
15044;DHT22;7619;48.562;8.910;2022-11-04T06:08:48;7.00;99.90
15044;DHT22;7619;48.562;8.910;2022-11-04T06:11:18;7.00;99.90
15044;DHT22;7619;48.562;8.910;2022-11-04T06:13:48;7.10;99.90
15044;DHT22;7619;48.562;8.910;2022-11-04T06:16:17;7.10;99.90
15044;DHT22;7619;48.562;8.910;2022-11-04T06:18:46;7.10;99.90
15044;DHT22;7619;48.562;8.910;2022-11-04T06:21:25;7.10;99.90
15044;DHT22;7619;48.562;8.910;2022-11-04T06:23:55;7.10;99.90
15044;DHT22;7619;48.562;8.910;2022-11-04T06:26:25;7.20;99.90
15044;DHT22;7619;48.562;8.910;2022-11-04T06:31:31;7.30;99.90
15044;DHT22;7619;48.562;8.910;2022-11-04T06:34:00;7.20;99.90
15044;DHT22;7619;48.562;8.910;2022-11-04T06:36:29;7.10;99.90
15044;DHT22;7619;48.562;8.910;2022-11-04T06:41:36;7.00;99.90
15044;DHT22;7619;48.562;8.910;2022-11-04T06:44:05;7.10;99.90
15044;DHT22;7619;48.562;8.910;2022-11-04T06:46:36;7.20;99.90
15044;DHT22;7619;48.562;8.910;2022-11-04T06:49:06;7.10;99.90
15044;DHT22;7619;48.562;8.910;2022-11-04T06:51:36;7.10;99.90
15044;DHT22;7619;48.562;8.910;2022-11-04T06:54:05;7.20;99.90
15044;DHT22;7619;48.562;8.910;2022-11-04T06:56:34;7.10;99.90
15044;DHT22;7619;48.562;8.910;2022-11-04T06:59:04;7.10;99.90
15044;DHT22;7619;48.562;8.910;2022-11-04T07:01:36;7.10;99.90
15044;DHT22;7619;48.562;8.910;2022-11-04T07:04:05;7.20;99.90
15044;DHT22;7619;48.562;8.910;2022-11-04T07:09:13;7.20;99.90
15044;DHT22;7619;48.562;8.910;2022-11-04T07:11:43;7.20;99.90
15044;DHT22;7619;48.562;8.910;2022-11-04T07:14:12;7.30;99.90
15044;DHT22;7619;48.562;8.910;2022-11-04T07:16:41;7.30;99.90
15044;DHT22;7619;48.562;8.910;2022-11-04T07:19:10;7.30;99.90
15044;DHT22;7619;48.562;8.910;2022-11-04T07:24:15;7.50;99.90
15044;DHT22;7619;48.562;8.910;2022-11-04T07:26:44;7.60;99.90
15044;DHT22;7619;48.562;8.910;2022-11-04T07:29:13;7.60;99.90
15044;DHT22;7619;48.562;8.910;2022-11-04T07:31:43;7.70;99.90
15044;DHT22;7619;48.562;8.910;2022-11-04T07:34:12;7.70;99.90
15044;DHT22;7619;48.562;8.910;2022-11-04T07:36:41;7.70;99.90
15044;DHT22;7619;48.562;8.910;2022-11-04T07:39:09;7.80;99.90
15044;DHT22;7619;48.562;8.910;2022-11-04T07:41:38;7.90;99.90
15044;DHT22;7619;48.562;8.910;2022-11-04T07:44:10;8.00;99.90
15044;DHT22;7619;48.562;8.910;2022-11-04T07:46:38;8.10;99.90
15044;DHT22;7619;48.562;8.910;2022-11-04T07:49:08;8.20;99.90
15044;DHT22;7619;48.562;8.910;2022-11-04T07:51:37;8.20;99.90
15044;DHT22;7619;48.562;8.910;2022-11-04T07:54:06;8.40;99.90
15044;DHT22;7619;48.562;8.910;2022-11-04T07:59:12;8.40;99.90
15044;DHT22;7619;48.562;8.910;2022-11-04T08:04:20;8.60;99.90
15044;DHT22;7619;48.562;8.910;2022-11-04T08:06:49;8.80;99.90
15044;DHT22;7619;48.562;8.910;2022-11-04T08:12:16;8.90;99.90
15044;DHT22;7619;48.562;8.910;2022-11-04T08:14:59;9.00;99.90
15044;DHT22;7619;48.562;8.910;2022-11-04T08:17:43;9.10;99.90
15044;DHT22;7619;48.562;8.910;2022-11-04T08:20:27;9.20;99.90
15044;DHT22;7619;48.562;8.910;2022-11-04T08:28:24;9.30;99.90
15044;DHT22;7619;48.562;8.910;2022-11-04T08:30:55;9.10;99.90
15044;DHT22;7619;48.562;8.910;2022-11-04T08:36:17;9.30;99.90
15044;DHT22;7619;48.562;8.910;2022-11-04T08:39:04;9.40;99.90
15044;DHT22;7619;48.562;8.910;2022-11-04T08:41:48;9.60;99.90
15044;DHT22;7619;48.562;8.910;2022-11-04T08:44:22;9.70;99.90
15044;DHT22;7619;48.562;8.910;2022-11-04T08:49:38;9.90;99.90
15044;DHT22;7619;48.562;8.910;2022-11-04T08:54:45;10.00;99.90
15044;DHT22;7619;48.562;8.910;2022-11-04T08:57:14;10.10;99.90
15044;DHT22;7619;48.562;8.910;2022-11-04T08:59:43;10.10;99.90
15044;DHT22;7619;48.562;8.910;2022-11-04T09:02:14;10.10;99.90
15044;DHT22;7619;48.562;8.910;2022-11-04T09:04:43;10.10;99.90
15044;DHT22;7619;48.562;8.910;2022-11-04T09:07:13;10.20;99.90
15044;DHT22;7619;48.562;8.910;2022-11-04T09:09:42;10.40;99.90
15044;DHT22;7619;48.562;8.910;2022-11-04T09:12:11;10.30;99.90
15044;DHT22;7619;48.562;8.910;2022-11-04T09:14:40;10.20;99.90
15044;DHT22;7619;48.562;8.910;2022-11-04T09:17:09;10.10;99.90
15044;DHT22;7619;48.562;8.910;2022-11-04T09:19:38;10.00;99.90
15044;DHT22;7619;48.562;8.910;2022-11-04T09:22:07;10.00;99.90
15044;DHT22;7619;48.562;8.910;2022-11-04T09:24:36;10.20;99.90
15044;DHT22;7619;48.562;8.910;2022-11-04T09:27:08;10.20;99.90
15044;DHT22;7619;48.562;8.910;2022-11-04T09:29:37;10.10;99.90
15044;DHT22;7619;48.562;8.910;2022-11-04T09:32:07;10.40;99.90
15044;DHT22;7619;48.562;8.910;2022-11-04T09:34:36;10.50;99.90
15044;DHT22;7619;48.562;8.910;2022-11-04T09:37:06;10.60;99.90
15044;DHT22;7619;48.562;8.910;2022-11-04T09:39:35;10.80;99.90
15044;DHT22;7619;48.562;8.910;2022-11-04T09:42:16;10.90;99.90
15044;DHT22;7619;48.562;8.910;2022-11-04T09:47:29;11.20;99.90
15044;DHT22;7619;48.562;8.910;2022-11-04T09:50:00;11.30;99.90
15044;DHT22;7619;48.562;8.910;2022-11-04T09:55:14;11.40;99.90
15044;DHT22;7619;48.562;8.910;2022-11-04T09:57:50;11.50;99.90
15044;DHT22;7619;48.562;8.910;2022-11-04T10:00:26;11.50;99.90
15044;DHT22;7619;48.562;8.910;2022-11-04T10:03:13;11.60;99.90
15044;DHT22;7619;48.562;8.910;2022-11-04T10:08:53;12.10;99.90
15044;DHT22;7619;48.562;8.910;2022-11-04T10:11:26;12.00;99.90
15044;DHT22;7619;48.562;8.910;2022-11-04T10:14:06;11.80;1.00
15044;DHT22;7619;48.562;8.910;2022-11-04T10:16:55;11.70;99.90
15044;DHT22;7619;48.562;8.910;2022-11-04T10:19:37;11.60;1.00
15044;DHT22;7619;48.562;8.910;2022-11-04T10:22:12;11.70;99.90
15044;DHT22;7619;48.562;8.910;2022-11-04T10:24:45;11.90;1.00
15044;DHT22;7619;48.562;8.910;2022-11-04T10:27:16;12.10;99.90
15044;DHT22;7619;48.562;8.910;2022-11-04T10:29:51;12.10;1.00
15044;DHT22;7619;48.562;8.910;2022-11-04T10:32:24;12.10;29.60
15044;DHT22;7619;48.562;8.910;2022-11-04T10:34:57;12.20;1.00
15044;DHT22;7619;48.562;8.910;2022-11-04T10:37:28;12.20;99.90
15044;DHT22;7619;48.562;8.910;2022-11-04T10:40:04;12.10;1.00
15044;DHT22;7619;48.562;8.910;2022-11-04T10:45:15;12.10;99.90
15044;DHT22;7619;48.562;8.910;2022-11-04T10:47:49;12.00;1.00
15044;DHT22;7619;48.562;8.910;2022-11-04T10:50:31;12.20;99.90
15044;DHT22;7619;48.562;8.910;2022-11-04T10:53:13;12.10;1.00
15044;DHT22;7619;48.562;8.910;2022-11-04T10:55:47;12.20;99.90
15044;DHT22;7619;48.562;8.910;2022-11-04T10:58:20;12.40;1.00
15044;DHT22;7619;48.562;8.910;2022-11-04T11:00:52;12.40;99.90
15044;DHT22;7619;48.562;8.910;2022-11-04T11:03:27;12.40;99.90
15044;DHT22;7619;48.562;8.910;2022-11-04T11:06:18;12.60;1.00
15044;DHT22;7619;48.562;8.910;2022-11-04T11:08:46;12.60;99.90
15044;DHT22;7619;48.562;8.910;2022-11-04T11:11:15;12.60;1.00
15044;DHT22;7619;48.562;8.910;2022-11-04T11:13:46;12.50;1.00
15044;DHT22;7619;48.562;8.910;2022-11-04T11:16:19;12.50;97.90
15044;DHT22;7619;48.562;8.910;2022-11-04T11:19:08;12.60;1.00
15044;DHT22;7619;48.562;8.910;2022-11-04T11:21:42;12.60;99.90
15044;DHT22;7619;48.562;8.910;2022-11-04T11:24:21;12.60;99.90
15044;DHT22;7619;48.562;8.910;2022-11-04T11:29:32;12.60;1.00
15044;DHT22;7619;48.562;8.910;2022-11-04T11:32:04;12.80;1.00
15044;DHT22;7619;48.562;8.910;2022-11-04T11:34:36;12.90;1.00
15044;DHT22;7619;48.562;8.910;2022-11-04T11:39:51;13.00;1.00
15044;DHT22;7619;48.562;8.910;2022-11-04T11:42:20;13.10;99.90
15044;DHT22;7619;48.562;8.910;2022-11-04T11:44:51;13.10;29.20
15044;DHT22;7619;48.562;8.910;2022-11-04T11:47:33;13.20;38.90
15044;DHT22;7619;48.562;8.910;2022-11-04T11:50:13;13.20;1.00
15044;DHT22;7619;48.562;8.910;2022-11-04T11:52:38;13.00;1.00
15044;DHT22;7619;48.562;8.910;2022-11-04T11:55:11;12.90;1.00
15044;DHT22;7619;48.562;8.910;2022-11-04T11:57:48;12.90;99.90
15044;DHT22;7619;48.562;8.910;2022-11-04T12:02:58;12.60;99.90
15044;DHT22;7619;48.562;8.910;2022-11-04T12:05:33;12.70;99.90
15044;DHT22;7619;48.562;8.910;2022-11-04T12:10:48;14.40;1.00
15044;DHT22;7619;48.562;8.910;2022-11-04T12:16:15;15.00;1.00
15044;DHT22;7619;48.562;8.910;2022-11-04T12:19:03;15.00;1.00
15044;DHT22;7619;48.562;8.910;2022-11-04T12:21:34;15.00;99.90
15044;DHT22;7619;48.562;8.910;2022-11-04T12:24:15;14.80;7.00
15044;DHT22;7619;48.562;8.910;2022-11-04T12:26:43;15.20;1.00
15044;DHT22;7619;48.562;8.910;2022-11-04T12:29:25;15.40;1.00
15044;DHT22;7619;48.562;8.910;2022-11-04T12:34:46;15.60;1.00
15044;DHT22;7619;48.562;8.910;2022-11-04T12:37:22;14.90;1.00
15044;DHT22;7619;48.562;8.910;2022-11-04T12:40:11;14.60;99.90
15044;DHT22;7619;48.562;8.910;2022-11-04T12:42:49;14.80;99.90
15044;DHT22;7619;48.562;8.910;2022-11-04T12:45:23;14.80;99.90
15044;DHT22;7619;48.562;8.910;2022-11-04T12:47:56;14.30;99.90
15044;DHT22;7619;48.562;8.910;2022-11-04T12:53:32;14.10;99.90
15044;DHT22;7619;48.562;8.910;2022-11-04T13:01:46;13.70;99.90
15044;DHT22;7619;48.562;8.910;2022-11-04T13:04:19;13.50;99.90
15044;DHT22;7619;48.562;8.910;2022-11-04T13:09:33;13.70;99.90
15044;DHT22;7619;48.562;8.910;2022-11-04T13:12:07;13.60;99.90
15044;DHT22;7619;48.562;8.910;2022-11-04T13:14:41;13.60;99.90
15044;DHT22;7619;48.562;8.910;2022-11-04T13:17:14;14.00;99.90
15044;DHT22;7619;48.562;8.910;2022-11-04T13:19:45;14.20;99.90
15044;DHT22;7619;48.562;8.910;2022-11-04T13:24:59;14.60;99.90
15044;DHT22;7619;48.562;8.910;2022-11-04T13:46:35;14.50;99.90
15044;DHT22;7619;48.562;8.910;2022-11-04T13:49:13;14.30;99.90
15044;DHT22;7619;48.562;8.910;2022-11-04T13:51:40;14.00;99.90
15044;DHT22;7619;48.562;8.910;2022-11-04T13:54:26;14.20;99.90
15044;DHT22;7619;48.562;8.910;2022-11-04T13:57:08;14.20;99.90
15044;DHT22;7619;48.562;8.910;2022-11-04T13:59:40;14.40;99.90
15044;DHT22;7619;48.562;8.910;2022-11-04T14:02:39;14.40;99.90
15044;DHT22;7619;48.562;8.910;2022-11-04T14:08:23;14.80;99.90
15044;DHT22;7619;48.562;8.910;2022-11-04T14:11:10;14.60;99.90
15044;DHT22;7619;48.562;8.910;2022-11-04T14:16:46;14.10;99.90
15044;DHT22;7619;48.562;8.910;2022-11-04T14:22:46;14.00;99.90
15044;DHT22;7619;48.562;8.910;2022-11-04T14:28:01;13.60;41.80
15044;DHT22;7619;48.562;8.910;2022-11-04T14:30:41;13.60;40.60
15044;DHT22;7619;48.562;8.910;2022-11-04T14:39:19;13.40;49.10
15044;DHT22;7619;48.562;8.910;2022-11-04T14:41:56;13.30;80.60
15044;DHT22;7619;48.562;8.910;2022-11-04T14:44:35;12.90;90.40
15044;DHT22;7619;48.562;8.910;2022-11-04T14:47:17;12.40;99.90
15044;DHT22;7619;48.562;8.910;2022-11-04T14:49:48;12.20;99.90
15044;DHT22;7619;48.562;8.910;2022-11-04T14:55:05;11.90;99.90
15044;DHT22;7619;48.562;8.910;2022-11-04T15:00:26;11.60;1.00
15044;DHT22;7619;48.562;8.910;2022-11-04T15:06:01;11.30;1.00
15044;DHT22;7619;48.562;8.910;2022-11-04T15:08:33;11.20;99.90
15044;DHT22;7619;48.562;8.910;2022-11-04T15:13:46;10.80;1.00
15044;DHT22;7619;48.562;8.910;2022-11-04T15:16:17;10.70;99.90
15044;DHT22;7619;48.562;8.910;2022-11-04T15:18:48;10.60;1.00
15044;DHT22;7619;48.562;8.910;2022-11-04T15:21:17;10.50;99.90
15044;DHT22;7619;48.562;8.910;2022-11-04T15:23:48;10.30;1.00
15044;DHT22;7619;48.562;8.910;2022-11-04T15:26:21;10.30;99.90
15044;DHT22;7619;48.562;8.910;2022-11-04T15:28:51;10.20;1.00
15044;DHT22;7619;48.562;8.910;2022-11-04T15:31:22;10.10;99.90
15044;DHT22;7619;48.562;8.910;2022-11-04T15:33:54;10.20;1.00
15044;DHT22;7619;48.562;8.910;2022-11-04T15:39:06;10.40;1.00
15044;DHT22;7619;48.562;8.910;2022-11-04T15:41:37;10.60;1.00
15044;DHT22;7619;48.562;8.910;2022-11-04T15:44:26;10.60;1.00
15044;DHT22;7619;48.562;8.910;2022-11-04T15:49:34;10.70;99.90
15044;DHT22;7619;48.562;8.910;2022-11-04T15:52:07;10.70;35.40
15044;DHT22;7619;48.562;8.910;2022-11-04T15:54:39;10.70;1.00
15044;DHT22;7619;48.562;8.910;2022-11-04T15:57:13;10.60;1.00
15044;DHT22;7619;48.562;8.910;2022-11-04T15:59:48;10.70;57.40
15044;DHT22;7619;48.562;8.910;2022-11-04T16:02:21;10.70;99.90
15044;DHT22;7619;48.562;8.910;2022-11-04T16:07:38;10.70;1.00
15044;DHT22;7619;48.562;8.910;2022-11-04T16:10:26;10.70;1.00
15044;DHT22;7619;48.562;8.910;2022-11-04T16:12:58;10.60;99.90
15044;DHT22;7619;48.562;8.910;2022-11-04T16:18:21;10.60;99.90
15044;DHT22;7619;48.562;8.910;2022-11-04T16:23:29;10.50;95.90
15044;DHT22;7619;48.562;8.910;2022-11-04T16:26:02;10.50;1.00
15044;DHT22;7619;48.562;8.910;2022-11-04T16:28:34;10.20;1.00
15044;DHT22;7619;48.562;8.910;2022-11-04T16:31:06;10.20;1.00
15044;DHT22;7619;48.562;8.910;2022-11-04T16:33:36;10.10;1.00
15044;DHT22;7619;48.562;8.910;2022-11-04T16:36:10;10.10;1.00
15044;DHT22;7619;48.562;8.910;2022-11-04T16:38:41;10.20;99.90
15044;DHT22;7619;48.562;8.910;2022-11-04T16:41:10;10.20;1.00
15044;DHT22;7619;48.562;8.910;2022-11-04T16:43:43;10.10;99.90
15044;DHT22;7619;48.562;8.910;2022-11-04T16:46:12;10.10;1.00
15044;DHT22;7619;48.562;8.910;2022-11-04T16:48:41;10.10;99.90
15044;DHT22;7619;48.562;8.910;2022-11-04T16:51:15;10.10;99.90
15044;DHT22;7619;48.562;8.910;2022-11-04T16:53:47;10.20;99.90
15044;DHT22;7619;48.562;8.910;2022-11-04T16:56:19;10.10;99.90
15044;DHT22;7619;48.562;8.910;2022-11-04T16:58:48;10.20;99.90
15044;DHT22;7619;48.562;8.910;2022-11-04T17:01:17;10.20;99.90
15044;DHT22;7619;48.562;8.910;2022-11-04T17:03:47;10.10;99.90
15044;DHT22;7619;48.562;8.910;2022-11-04T17:08:54;10.10;99.90
15044;DHT22;7619;48.562;8.910;2022-11-04T17:11:23;10.00;99.90
15044;DHT22;7619;48.562;8.910;2022-11-04T17:13:52;9.90;99.90
15044;DHT22;7619;48.562;8.910;2022-11-04T17:16:22;9.80;99.90
15044;DHT22;7619;48.562;8.910;2022-11-04T17:18:51;9.50;99.90
15044;DHT22;7619;48.562;8.910;2022-11-04T17:23:58;9.40;99.90
15044;DHT22;7619;48.562;8.910;2022-11-04T17:26:27;9.40;99.90
15044;DHT22;7619;48.562;8.910;2022-11-04T17:31:38;9.00;99.90
15044;DHT22;7619;48.562;8.910;2022-11-04T17:34:12;8.80;99.90
15044;DHT22;7619;48.562;8.910;2022-11-04T17:36:47;8.80;99.90
15044;DHT22;7619;48.562;8.910;2022-11-04T17:39:22;8.80;99.90
15044;DHT22;7619;48.562;8.910;2022-11-04T17:41:57;8.90;99.90
15044;DHT22;7619;48.562;8.910;2022-11-04T17:44:44;8.80;99.90
15044;DHT22;7619;48.562;8.910;2022-11-04T17:47:23;8.70;99.90
15044;DHT22;7619;48.562;8.910;2022-11-04T17:49:55;8.80;99.90
15044;DHT22;7619;48.562;8.910;2022-11-04T17:52:27;8.80;99.90
15044;DHT22;7619;48.562;8.910;2022-11-04T17:54:59;8.80;99.90
15044;DHT22;7619;48.562;8.910;2022-11-04T18:00:10;8.70;99.90
15044;DHT22;7619;48.562;8.910;2022-11-04T18:02:41;8.70;99.90
15044;DHT22;7619;48.562;8.910;2022-11-04T18:05:10;8.70;99.90
15044;DHT22;7619;48.562;8.910;2022-11-04T18:07:39;8.60;99.90
15044;DHT22;7619;48.562;8.910;2022-11-04T18:10:09;8.60;99.90
15044;DHT22;7619;48.562;8.910;2022-11-04T18:12:39;8.60;99.90
15044;DHT22;7619;48.562;8.910;2022-11-04T18:15:12;8.60;99.90
15044;DHT22;7619;48.562;8.910;2022-11-04T18:17:45;8.50;99.90
15044;DHT22;7619;48.562;8.910;2022-11-04T18:20:19;8.50;99.90
15044;DHT22;7619;48.562;8.910;2022-11-04T18:22:51;8.60;99.90
15044;DHT22;7619;48.562;8.910;2022-11-04T18:25:22;8.60;99.90
15044;DHT22;7619;48.562;8.910;2022-11-04T18:27:56;8.60;99.90
15044;DHT22;7619;48.562;8.910;2022-11-04T18:30:28;8.60;99.90
15044;DHT22;7619;48.562;8.910;2022-11-04T18:32:57;8.60;99.90
15044;DHT22;7619;48.562;8.910;2022-11-04T18:35:27;8.60;99.90
15044;DHT22;7619;48.562;8.910;2022-11-04T18:40:37;8.60;99.90
15044;DHT22;7619;48.562;8.910;2022-11-04T18:43:08;8.50;99.90
15044;DHT22;7619;48.562;8.910;2022-11-04T18:45:37;8.50;99.90
15044;DHT22;7619;48.562;8.910;2022-11-04T18:48:06;8.50;99.90
15044;DHT22;7619;48.562;8.910;2022-11-04T18:50:45;8.40;99.90
15044;DHT22;7619;48.562;8.910;2022-11-04T18:53:19;8.40;99.90
15044;DHT22;7619;48.562;8.910;2022-11-04T18:55:52;8.40;99.90
15044;DHT22;7619;48.562;8.910;2022-11-04T18:58:24;8.40;99.90
15044;DHT22;7619;48.562;8.910;2022-11-04T19:00:54;8.40;99.90
15044;DHT22;7619;48.562;8.910;2022-11-04T19:03:23;8.40;99.90
15044;DHT22;7619;48.562;8.910;2022-11-04T19:05:52;8.30;99.90
15044;DHT22;7619;48.562;8.910;2022-11-04T19:08:21;8.20;99.90
15044;DHT22;7619;48.562;8.910;2022-11-04T19:13:27;8.10;99.90
15044;DHT22;7619;48.562;8.910;2022-11-04T19:16:03;8.10;99.90
15044;DHT22;7619;48.562;8.910;2022-11-04T19:18:32;8.10;99.90
15044;DHT22;7619;48.562;8.910;2022-11-04T19:21:05;8.10;99.90
15044;DHT22;7619;48.562;8.910;2022-11-04T19:23:35;8.10;99.90
15044;DHT22;7619;48.562;8.910;2022-11-04T19:28:43;8.00;99.90
15044;DHT22;7619;48.562;8.910;2022-11-04T19:31:15;8.10;99.90
15044;DHT22;7619;48.562;8.910;2022-11-04T19:33:45;8.10;99.90
15044;DHT22;7619;48.562;8.910;2022-11-04T19:36:16;8.20;99.90
15044;DHT22;7619;48.562;8.910;2022-11-04T19:38:45;8.30;99.90